createdAt,value
2018-03-14T00:00:15.967Z,94227.62
2018-03-14T00:02:42.685Z,94217.13
2018-03-14T00:05:09.317Z,94230.94
2018-03-14T00:07:35.916Z,94222.59
2018-03-14T00:10:02.561Z,94234.31
2018-03-14T00:12:29.192Z,94228.81
2018-03-14T00:14:55.898Z,94232.61
2018-03-14T00:17:22.514Z,94235.61
2018-03-14T00:19:49.196Z,94246.09
2018-03-14T00:22:15.832Z,94234.11
2018-03-14T00:24:42.581Z,94239.30
2018-03-14T00:27:09.254Z,94240.80
2018-03-14T00:29:35.875Z,94232.98
2018-03-14T00:32:02.556Z,94230.95
2018-03-14T00:34:29.245Z,94224.47
2018-03-14T00:36:55.846Z,94217.62
2018-03-14T00:39:22.508Z,94222.52
2018-03-14T00:41:49.124Z,94220.67
2018-03-14T00:44:15.809Z,94217.99
2018-03-14T00:46:42.457Z,94217.42
2018-03-14T00:49:09.127Z,94225.40
2018-03-14T00:51:35.798Z,94218.27
2018-03-14T00:54:02.434Z,94215.55
2018-03-14T00:56:29.071Z,94222.70
2018-03-14T00:58:55.678Z,94222.89
2018-03-14T01:01:22.312Z,94225.30
2018-03-14T01:03:48.991Z,94220.56
2018-03-14T01:06:15.654Z,94221.80
2018-03-14T01:08:42.300Z,94220.30
2018-03-14T01:11:08.955Z,94213.50
2018-03-14T01:13:35.673Z,94216.23
2018-03-14T01:16:02.342Z,94208.41
2018-03-14T01:18:29.063Z,94217.31
2018-03-14T01:20:55.700Z,94216.77
2018-03-14T01:23:22.339Z,94222.70
2018-03-14T01:25:49.022Z,94216.87
2018-03-14T01:28:15.694Z,94220.78
2018-03-14T01:30:42.367Z,94221.21
2018-03-14T01:33:09.003Z,94222.60
2018-03-14T01:35:35.674Z,94217.42
2018-03-14T01:38:02.340Z,94218.70
2018-03-14T01:40:28.990Z,94212.69
2018-03-14T01:42:55.626Z,94207.02
2018-03-14T01:45:22.278Z,94209.70
2018-03-14T01:47:48.955Z,94209.80
2018-03-14T01:50:15.662Z,94207.67
2018-03-14T01:52:42.280Z,94204.23
2018-03-14T01:55:08.950Z,94208.41
2018-03-14T01:57:35.657Z,94204.98
2018-03-14T02:00:02.338Z,94207.50
2018-03-14T02:02:28.954Z,94199.31
2018-03-14T02:04:55.601Z,94193.75
2018-03-14T02:07:22.313Z,94199.31
2018-03-14T02:09:48.911Z,94204.52
2018-03-14T02:12:15.538Z,94201.83
2018-03-14T02:14:42.192Z,94203.97
2018-03-14T02:17:08.827Z,94205.73
2018-03-14T02:19:35.541Z,94205.36
2018-03-14T02:22:02.144Z,94208.31
2018-03-14T02:24:31.673Z,94208.79
2018-03-14T02:26:58.311Z,94209.80
2018-03-14T02:29:24.928Z,94220.19
2018-03-14T02:31:51.619Z,94213.06
2018-03-14T02:34:18.291Z,94210.00
2018-03-14T02:36:44.892Z,94210.92
2018-03-14T02:39:11.540Z,94206.86
2018-03-14T02:41:38.221Z,94207.13
2018-03-14T02:44:04.888Z,94215.28
2018-03-14T02:46:31.525Z,94212.05
2018-03-14T02:48:58.202Z,94212.05
2018-03-14T02:51:24.852Z,94209.91
2018-03-14T02:53:51.456Z,94213.44
2018-03-14T02:56:18.153Z,94215.92
2018-03-14T02:58:44.792Z,94216.87
2018-03-14T03:01:11.453Z,94222.44
2018-03-14T03:03:38.047Z,94224.28
2018-03-14T03:06:07.658Z,94223.91
2018-03-14T03:08:34.294Z,94224.58
2018-03-14T03:11:00.901Z,94223.56
2018-03-14T03:13:27.573Z,94226.34
2018-03-14T03:15:54.181Z,94225.40
2018-03-14T03:18:20.850Z,94226.98
2018-03-14T03:20:47.501Z,94225.88
2018-03-14T03:23:14.150Z,94225.88
2018-03-14T03:25:40.870Z,94225.40
2018-03-14T03:28:07.509Z,94216.41
2018-03-14T03:30:34.144Z,94224.95
2018-03-14T03:33:00.831Z,94219.56
2018-03-14T03:35:27.446Z,94232.64
2018-03-14T03:37:54.120Z,94231.72
2018-03-14T03:40:20.723Z,94226.51
2018-03-14T03:42:47.363Z,94224.28
2018-03-14T03:45:14.047Z,94220.95
2018-03-14T03:47:40.709Z,94221.33
2018-03-14T03:50:07.343Z,94219.02
2018-03-14T03:52:34.049Z,94222.08
2018-03-14T03:55:00.661Z,94222.45
2018-03-14T03:57:27.352Z,94227.27
2018-03-14T03:59:53.954Z,94218.81
2018-03-14T04:02:20.623Z,94226.33
2018-03-14T04:04:47.256Z,94224.59
2018-03-14T04:07:13.907Z,94229.68
2018-03-14T04:09:40.596Z,94230.97
2018-03-14T04:12:07.270Z,94231.55
2018-03-14T04:14:33.877Z,94234.33
2018-03-14T04:17:00.512Z,94231.25
2018-03-14T04:19:27.142Z,94233.95
2018-03-14T04:21:53.786Z,94237.92
2018-03-14T04:24:20.461Z,94240.17
2018-03-14T04:26:47.064Z,94234.02
2018-03-14T04:29:13.739Z,94231.17
2018-03-14T04:31:40.380Z,94232.55
2018-03-14T04:34:07.008Z,94228.08
2018-03-14T04:36:33.648Z,94232.63
2018-03-14T04:39:00.323Z,94233.11
2018-03-14T04:41:26.959Z,94234.13
2018-03-14T04:43:53.558Z,94237.10
2018-03-14T04:46:20.206Z,94234.13
2018-03-14T04:48:46.876Z,94237.46
2018-03-14T04:51:13.512Z,94236.16
2018-03-14T04:53:40.125Z,94229.11
2018-03-14T04:56:06.783Z,94234.33
2018-03-14T04:58:33.388Z,94234.33
2018-03-14T05:01:00.027Z,94242.32
2018-03-14T05:03:26.742Z,94238.94
2018-03-14T05:05:53.383Z,94240.55
2018-03-14T05:08:20.044Z,94243.61
2018-03-14T05:10:46.711Z,94240.99
2018-03-14T05:13:13.320Z,94244.25
2018-03-14T05:15:39.998Z,94241.84
2018-03-14T05:18:06.624Z,94243.98
2018-03-14T05:20:33.230Z,94252.64
2018-03-14T05:22:59.871Z,94251.18
2018-03-14T05:25:26.554Z,94257.55
2018-03-14T05:27:53.184Z,94258.83
2018-03-14T05:30:19.964Z,94267.40
2018-03-14T05:32:46.607Z,94263.80
2018-03-14T05:35:13.280Z,94267.63
2018-03-14T05:37:39.886Z,94268.81
2018-03-14T05:40:06.581Z,94260.96
2018-03-14T05:42:33.246Z,94263.73
2018-03-14T05:44:59.866Z,94268.34
2018-03-14T05:47:26.517Z,94273.36
2018-03-14T05:49:53.148Z,94266.95
2018-03-14T05:52:19.860Z,94270.48
2018-03-14T05:54:46.499Z,94268.66
2018-03-14T05:57:13.172Z,94270.88
2018-03-14T05:59:39.857Z,94276.72
2018-03-14T06:02:06.523Z,94287.34
2018-03-14T06:04:33.123Z,94284.81
2018-03-14T06:06:59.818Z,94286.38
2018-03-14T06:09:26.496Z,94287.52
2018-03-14T06:11:53.135Z,94293.46
2018-03-14T06:14:20.712Z,94292.81
2018-03-14T06:16:47.342Z,94298.87
2018-03-14T06:19:13.999Z,94308.15
2018-03-14T06:21:40.697Z,94303.70
2018-03-14T06:24:07.336Z,94305.01
2018-03-14T06:26:34.004Z,94285.77
2018-03-14T06:29:00.712Z,94305.95
2018-03-14T06:31:27.359Z,94316.42
2018-03-14T06:33:53.995Z,94322.52
2018-03-14T06:36:21.762Z,94318.41
2018-03-14T06:38:48.528Z,94318.70
2018-03-14T06:41:15.244Z,94331.80
2018-03-14T06:43:41.846Z,94326.06
2018-03-14T06:46:08.566Z,94324.47
2018-03-14T06:48:35.278Z,94329.78
2018-03-14T06:51:01.966Z,94334.02
2018-03-14T06:53:28.580Z,94333.95
2018-03-14T06:55:55.318Z,94337.91
2018-03-14T06:58:21.966Z,94341.59
2018-03-14T07:00:48.629Z,94337.23
2018-03-14T07:03:15.279Z,94339.48
2018-03-14T07:05:41.962Z,94324.86
2018-03-14T07:08:08.625Z,94350.66
2018-03-14T07:10:35.283Z,94344.13
2018-03-14T07:13:01.974Z,94341.58
2018-03-14T07:15:28.664Z,94342.77
2018-03-14T07:17:55.498Z,94339.33
2018-03-14T07:20:22.129Z,94337.73
2018-03-14T07:22:48.880Z,94339.05
2018-03-14T07:25:15.527Z,94344.90
2018-03-14T07:27:42.132Z,94337.19
2018-03-14T07:30:08.905Z,94348.91
2018-03-14T07:32:35.643Z,94352.38
2018-03-14T07:35:02.322Z,94350.30
2018-03-14T07:37:29.006Z,94353.20
2018-03-14T07:39:55.693Z,94356.41
2018-03-14T07:42:22.420Z,94355.28
2018-03-14T07:44:49.050Z,94340.73
2018-03-14T07:47:15.718Z,94359.89
2018-03-14T07:49:42.458Z,94358.78
2018-03-14T07:52:09.100Z,94356.94
2018-03-14T07:54:35.788Z,94361.07
2018-03-14T07:57:02.475Z,94359.19
2018-03-14T07:59:29.167Z,94354.58
2018-03-14T08:01:55.810Z,94343.26
2018-03-14T08:04:22.456Z,94355.02
2018-03-14T08:06:49.230Z,94361.04
2018-03-14T08:09:15.909Z,94356.78
2018-03-14T08:11:42.544Z,94360.59
2018-03-14T08:14:09.180Z,94357.16
2018-03-14T08:16:35.823Z,94350.12
2018-03-14T08:19:02.460Z,94355.82
2018-03-14T08:21:29.229Z,94351.72
2018-03-14T08:23:55.896Z,94352.70
2018-03-14T08:26:22.573Z,94356.43
2018-03-14T08:28:49.220Z,94355.93
2018-03-14T08:31:15.900Z,94345.03
2018-03-14T08:33:42.539Z,94355.11
2018-03-14T08:36:09.315Z,94360.48
2018-03-14T08:38:36.027Z,94363.03
2018-03-14T08:41:02.663Z,94349.14
2018-03-14T08:43:29.386Z,94353.93
2018-03-14T08:45:56.367Z,94347.13
2018-03-14T08:48:23.015Z,94346.02
2018-03-14T08:50:49.791Z,94345.95
2018-03-14T08:53:16.532Z,94343.45
2018-03-14T08:55:43.222Z,94333.21
2018-03-14T08:58:09.876Z,94347.36
2018-03-14T09:00:36.620Z,94345.01
2018-03-14T09:03:03.268Z,94344.26
2018-03-14T09:05:29.968Z,94347.61
2018-03-14T09:07:56.641Z,94344.60
2018-03-14T09:10:23.295Z,94345.27
2018-03-14T09:12:49.937Z,94333.61
2018-03-14T09:15:16.615Z,94351.11
2018-03-14T09:17:43.323Z,94347.81
2018-03-14T09:20:09.973Z,94356.09
2018-03-14T09:22:36.626Z,94354.79
2018-03-14T09:25:03.327Z,94348.69
2018-03-14T09:27:29.982Z,94345.74
2018-03-14T09:29:56.623Z,94342.41
2018-03-14T09:32:24.367Z,94339.39
2018-03-14T09:34:51.045Z,94344.22
2018-03-14T09:37:17.642Z,94338.77
2018-03-14T09:39:44.374Z,94341.09
2018-03-14T09:42:10.984Z,94336.52
2018-03-14T09:44:37.705Z,94339.17
2018-03-14T09:47:04.406Z,94339.55
2018-03-14T09:49:31.119Z,94344.91
2018-03-14T09:51:57.814Z,94336.20
2018-03-14T09:54:24.417Z,94336.39
2018-03-14T09:56:51.100Z,94338.99
2018-03-14T09:59:17.789Z,94332.42
2018-03-14T10:01:44.503Z,94330.31
2018-03-14T10:04:11.151Z,94326.30
2018-03-14T10:06:37.834Z,94330.55
2018-03-14T10:09:04.517Z,94330.37
2018-03-14T10:11:31.126Z,94326.45
2018-03-14T10:13:57.775Z,94324.66
2018-03-14T10:16:24.457Z,94315.40
2018-03-14T10:18:51.091Z,94323.63
2018-03-14T10:21:17.855Z,94315.90
2018-03-14T10:23:44.514Z,94318.40
2018-03-14T10:26:11.167Z,94316.73
2018-03-14T10:28:37.801Z,94312.98
2018-03-14T10:31:04.471Z,94316.16
2018-03-14T10:33:31.136Z,94313.00
2018-03-14T10:35:57.784Z,94308.53
2018-03-14T10:38:24.478Z,94312.64
2018-03-14T10:40:51.135Z,94311.91
2018-03-14T10:43:17.806Z,94310.44
2018-03-14T10:45:44.450Z,94303.25
2018-03-14T10:48:11.080Z,94303.27
2018-03-14T10:50:37.755Z,94304.66
2018-03-14T10:53:04.432Z,94290.35
2018-03-14T10:55:31.064Z,94295.77
2018-03-14T10:57:57.716Z,94298.08
2018-03-14T11:00:24.371Z,94295.52
2018-03-14T11:02:51.044Z,94295.22
2018-03-14T11:05:17.725Z,94284.55
2018-03-14T11:07:44.384Z,94290.03
2018-03-14T11:10:11.058Z,94285.02
2018-03-14T11:12:37.711Z,94284.19
2018-03-14T11:15:04.419Z,94290.42
2018-03-14T11:17:31.071Z,94282.27
2018-03-14T11:19:57.712Z,94272.53
2018-03-14T11:22:24.398Z,94271.58
2018-03-14T11:24:51.106Z,94260.36
2018-03-14T11:27:17.797Z,94261.63
2018-03-14T11:29:44.491Z,94259.86
2018-03-14T11:32:11.182Z,94252.91
2018-03-14T11:34:37.924Z,94251.23
2018-03-14T11:37:04.562Z,94255.50
2018-03-14T11:39:31.207Z,94254.28
2018-03-14T11:41:57.899Z,94254.13
2018-03-14T11:44:24.693Z,94258.59
2018-03-14T11:46:51.324Z,94254.89
2018-03-14T11:49:17.968Z,94250.14
2018-03-14T11:51:44.678Z,94239.27
2018-03-14T11:54:13.323Z,94245.09
2018-03-14T11:56:39.994Z,94241.49
2018-03-14T11:59:06.653Z,94236.55
2018-03-14T12:01:33.358Z,94239.17
2018-03-14T12:04:01.113Z,94241.05
2018-03-14T12:06:27.762Z,94231.70
2018-03-14T12:08:54.396Z,94230.83
2018-03-14T12:11:21.083Z,94226.76
2018-03-14T12:13:48.729Z,94222.39
2018-03-14T12:16:15.604Z,94216.94
2018-03-14T12:18:42.251Z,94222.90
2018-03-14T12:21:09.090Z,94227.17
2018-03-14T12:23:35.774Z,94220.11
2018-03-14T12:26:02.376Z,94215.18
2018-03-14T12:28:29.000Z,94225.11
2018-03-14T12:30:55.669Z,94218.80
2018-03-14T12:33:22.281Z,94220.77
2018-03-14T12:35:48.918Z,94217.37
2018-03-14T12:38:15.576Z,94215.87
2018-03-14T12:40:42.279Z,94217.64
2018-03-14T12:43:08.968Z,94217.62
2018-03-14T12:45:36.767Z,94227.02
2018-03-14T12:50:50.935Z,94201.94
2018-03-14T12:53:17.572Z,94218.46
2018-03-14T12:55:44.257Z,94215.13
2018-03-14T12:58:10.918Z,94219.01
2018-03-14T13:00:37.565Z,94216.22
2018-03-14T13:03:04.303Z,94216.97
2018-03-14T13:05:30.940Z,94225.53
2018-03-14T13:07:57.575Z,94210.75
2018-03-14T13:10:24.225Z,94211.29
2018-03-14T13:12:50.863Z,94215.84
2018-03-14T13:15:17.537Z,94206.56
2018-03-14T13:17:44.178Z,94209.08
2018-03-14T13:20:10.868Z,94205.55
2018-03-14T13:22:37.512Z,94210.27
2018-03-14T13:25:04.192Z,94213.05
2018-03-14T13:27:30.939Z,94212.88
2018-03-14T13:29:57.625Z,94211.76
2018-03-14T13:32:24.259Z,94216.69
2018-03-14T13:34:50.906Z,94219.38
2018-03-14T13:37:17.556Z,94216.05
2018-03-14T13:39:44.226Z,94215.57
2018-03-14T13:42:10.900Z,94219.65
2018-03-14T13:44:37.567Z,94220.12
2018-03-14T13:47:04.229Z,94213.91
2018-03-14T13:49:30.861Z,94210.10
2018-03-14T13:51:57.549Z,94206.56
2018-03-14T13:54:24.277Z,94209.73
2018-03-14T13:56:52.009Z,94214.18
2018-03-14T13:59:18.733Z,94212.14
2018-03-14T14:01:45.392Z,94214.92
2018-03-14T14:04:12.036Z,94207.86
2018-03-14T14:06:38.749Z,94209.99
2018-03-14T14:09:05.402Z,94207.20
2018-03-14T14:11:32.059Z,94212.14
2018-03-14T14:13:58.730Z,94209.18
2018-03-14T14:16:25.362Z,94202.83
2018-03-14T14:18:51.999Z,94201.16
2018-03-14T14:21:18.713Z,94199.38
2018-03-14T14:23:45.399Z,94203.44
2018-03-14T14:26:12.081Z,94194.02
2018-03-14T14:31:05.385Z,94195.03
2018-03-14T14:33:32.057Z,94192.35
2018-03-14T14:35:58.713Z,94191.77
2018-03-14T14:38:25.444Z,94181.38
2018-03-14T14:40:52.171Z,94185.47
2018-03-14T14:43:18.827Z,94188.34
2018-03-14T14:45:45.532Z,94188.89
2018-03-14T14:48:12.196Z,94180.19
2018-03-14T14:50:38.977Z,94185.08
2018-03-14T14:53:05.702Z,94182.02
2018-03-14T14:55:32.392Z,94173.96
2018-03-14T14:57:59.065Z,94177.09
2018-03-14T15:00:25.662Z,94172.08
2018-03-14T15:02:52.354Z,94176.55
2018-03-14T15:05:18.997Z,94174.31
2018-03-14T15:07:47.040Z,94172.92
2018-03-14T15:10:12.396Z,94175.16
2018-03-14T15:12:39.126Z,94175.06
2018-03-14T15:15:05.818Z,94179.06
2018-03-14T15:17:33.813Z,94181.56
2018-03-14T15:20:00.485Z,94183.11
2018-03-14T15:22:27.126Z,94184.07
2018-03-14T15:24:53.794Z,94190.20
2018-03-14T15:27:20.487Z,94187.95
2018-03-14T15:29:47.188Z,94186.27
2018-03-14T15:32:13.846Z,94189.52
2018-03-14T15:34:40.485Z,94191.48
2018-03-14T15:37:07.299Z,94188.80
2018-03-14T15:39:33.998Z,94193.16
2018-03-14T15:42:00.850Z,94197.78
2018-03-14T15:44:27.577Z,94203.33
2018-03-14T15:46:54.371Z,94205.18
2018-03-14T15:49:21.074Z,94201.64
2018-03-14T15:51:47.709Z,94211.77
2018-03-14T15:54:14.317Z,94208.98
2018-03-14T15:56:41.019Z,94211.96
2018-03-14T15:59:07.737Z,94210.55
2018-03-14T16:01:34.430Z,94218.34
2018-03-14T16:04:01.066Z,94216.41
2018-03-14T16:06:27.656Z,94221.61
2018-03-14T16:08:54.389Z,94224.47
2018-03-14T16:11:20.988Z,94215.14
2018-03-14T16:13:47.651Z,94219.05
2018-03-14T16:16:14.295Z,94234.70
2018-03-14T16:18:40.978Z,94225.42
2018-03-14T16:21:10.401Z,94238.87
2018-03-14T16:23:37.028Z,94230.95
2018-03-14T16:26:03.675Z,94238.29
2018-03-14T16:28:30.387Z,94244.05
2018-03-14T16:30:57.043Z,94240.23
2018-03-14T16:33:23.722Z,94240.31
2018-03-14T16:35:50.403Z,94245.55
2018-03-14T16:38:17.072Z,94248.63
2018-03-14T16:40:43.733Z,94255.02
2018-03-14T16:43:10.382Z,94258.28
2018-03-14T16:45:37.019Z,94268.00
2018-03-14T16:48:03.683Z,94268.08
2018-03-14T16:50:30.344Z,94268.97
2018-03-14T16:52:57.000Z,94271.20
2018-03-14T16:55:23.665Z,94277.46
2018-03-14T16:57:50.301Z,94277.78
2018-03-14T17:00:16.990Z,94279.41
2018-03-14T17:02:43.634Z,94276.53
2018-03-14T17:05:10.302Z,94288.19
2018-03-14T17:07:36.985Z,94283.34
2018-03-14T17:10:03.619Z,94284.34
2018-03-14T17:12:30.350Z,94281.30
2018-03-14T17:14:56.986Z,94283.97
2018-03-14T17:17:23.650Z,94291.83
2018-03-14T17:19:50.307Z,94291.48
2018-03-14T17:22:17.078Z,94297.84
2018-03-14T17:24:43.760Z,94296.64
2018-03-14T17:27:10.372Z,94302.36
2018-03-14T17:29:37.132Z,94303.45
2018-03-14T17:32:03.742Z,94310.67
2018-03-14T17:34:30.410Z,94310.52
2018-03-14T17:36:57.111Z,94311.98
2018-03-14T17:39:23.732Z,94318.97
2018-03-14T17:41:50.367Z,94316.55
2018-03-14T17:44:17.016Z,94320.98
2018-03-14T17:46:43.647Z,94314.48
2018-03-14T17:49:10.362Z,94314.03
2018-03-14T17:51:37.033Z,94315.50
2018-03-14T17:54:03.631Z,94319.94
2018-03-14T17:56:30.347Z,94319.72
2018-03-14T17:58:56.944Z,94324.08
2018-03-14T18:01:23.613Z,94320.92
2018-03-14T18:03:50.225Z,94325.89
2018-03-14T18:06:16.932Z,94321.23
2018-03-14T18:08:43.614Z,94324.39
2018-03-14T18:11:10.296Z,94328.34
2018-03-14T18:13:36.937Z,94324.92
2018-03-14T18:16:03.650Z,94326.84
2018-03-14T18:18:30.337Z,94329.63
2018-03-14T18:20:56.977Z,94328.31
2018-03-14T18:23:23.616Z,94329.14
2018-03-14T18:25:50.384Z,94323.98
2018-03-14T18:28:17.058Z,94326.32
2018-03-14T18:30:43.713Z,94328.24
2018-03-14T18:33:10.387Z,94320.66
2018-03-14T18:35:36.984Z,94322.31
2018-03-14T18:38:03.667Z,94317.01
2018-03-14T18:40:30.336Z,94319.49
2018-03-14T18:42:57.044Z,94318.45
2018-03-14T18:45:23.688Z,94317.61
2018-03-14T18:47:50.328Z,94313.14
2018-03-14T18:50:17.007Z,94312.21
2018-03-14T18:52:43.724Z,94317.16
2018-03-14T18:55:10.414Z,94310.77
2018-03-14T18:57:37.113Z,94316.41
2018-03-14T19:00:03.746Z,94319.41
2018-03-14T19:02:30.390Z,94316.00
2018-03-14T19:04:57.027Z,94311.64
2018-03-14T19:07:23.753Z,94316.14
2018-03-14T19:09:50.432Z,94319.18
2018-03-14T19:12:17.068Z,94312.73
2018-03-14T19:14:43.706Z,94321.85
2018-03-14T19:17:10.362Z,94321.52
2018-03-14T19:19:37.026Z,94326.50
2018-03-14T19:22:03.697Z,94332.50
2018-03-14T19:24:30.387Z,94339.59
2018-03-14T19:26:57.031Z,94339.09
2018-03-14T19:29:23.715Z,94336.51
2018-03-14T19:31:50.404Z,94337.41
2018-03-14T19:34:17.044Z,94341.00
2018-03-14T19:36:43.719Z,94350.53
2018-03-14T19:39:10.394Z,94344.86
2018-03-14T19:41:36.999Z,94348.16
2018-03-14T19:44:03.679Z,94350.00
2018-03-14T19:46:30.311Z,94353.03
2018-03-14T19:48:56.973Z,94352.84
2018-03-14T19:51:23.593Z,94357.27
2018-03-14T19:53:50.233Z,94356.69
2018-03-14T19:56:16.937Z,94360.22
2018-03-14T19:58:43.538Z,94366.11
2018-03-14T20:01:10.168Z,94362.24
2018-03-14T20:03:36.855Z,94365.34
2018-03-14T20:06:03.496Z,94363.95
2018-03-14T20:08:30.171Z,94364.86
2018-03-14T20:10:56.855Z,94362.52
2018-03-14T20:13:23.497Z,94362.72
2018-03-14T20:15:50.185Z,94362.03
2018-03-14T20:18:16.841Z,94365.71
2018-03-14T20:20:43.483Z,94363.38
2018-03-14T20:23:10.118Z,94365.52
2018-03-14T20:25:36.872Z,94366.90
2018-03-14T20:28:03.504Z,94358.64
2018-03-14T20:30:30.180Z,94364.08
2018-03-14T20:32:56.819Z,94371.02
2018-03-14T20:35:23.534Z,94372.20
2018-03-14T20:37:50.182Z,94379.92
2018-03-14T20:40:16.853Z,94375.77
2018-03-14T20:42:43.527Z,94369.75
2018-03-14T20:45:10.132Z,94368.84
2018-03-14T20:47:36.845Z,94367.34
2018-03-14T20:50:03.538Z,94368.46
2018-03-14T20:52:30.127Z,94364.79
2018-03-14T20:54:56.803Z,94365.48
2018-03-14T20:57:23.442Z,94365.75
2018-03-14T20:59:50.113Z,94365.00
2018-03-14T21:02:16.811Z,94372.75
2018-03-14T21:04:43.414Z,94374.58
2018-03-14T21:07:10.124Z,94376.63
2018-03-14T21:09:36.758Z,94374.58
2018-03-14T21:12:03.418Z,94375.99
2018-03-14T21:14:30.053Z,94378.83
2018-03-14T21:16:56.719Z,94379.20
2018-03-14T21:19:23.395Z,94378.68
2018-03-14T21:21:50.048Z,94376.91
2018-03-14T21:24:16.717Z,94380.85
2018-03-14T21:26:43.412Z,94373.86
2018-03-14T21:29:10.049Z,94377.94
2018-03-14T21:31:36.652Z,94382.41
2018-03-14T21:34:03.344Z,94384.75
2018-03-14T21:36:29.982Z,94385.28
2018-03-14T21:38:56.624Z,94380.11
2018-03-14T21:41:23.328Z,94384.50
2018-03-14T21:43:49.967Z,94381.67
2018-03-14T21:46:16.648Z,94383.80
2018-03-14T21:48:43.364Z,94389.27
2018-03-14T21:51:10.152Z,94386.81
2018-03-14T21:53:36.742Z,94390.28
2018-03-14T21:56:03.401Z,94389.09
2018-03-14T21:58:30.073Z,94390.80
2018-03-14T22:00:56.668Z,94394.14
2018-03-14T22:03:23.316Z,94388.02
2018-03-14T22:05:50.042Z,94388.45
2018-03-14T22:08:16.683Z,94397.18
2018-03-14T22:10:43.322Z,94388.17
2018-03-14T22:13:11.519Z,94390.05
2018-03-14T22:15:36.655Z,94390.69
2018-03-14T22:18:03.337Z,94392.70
2018-03-14T22:20:29.962Z,94394.41
2018-03-14T22:22:56.686Z,94390.91
2018-03-14T22:25:23.296Z,94392.64
2018-03-14T22:27:49.942Z,94390.56
2018-03-14T22:30:16.661Z,94395.59
2018-03-14T22:32:43.298Z,94390.05
2018-03-14T22:35:09.924Z,94391.69
2018-03-14T22:37:36.591Z,94394.67
2018-03-14T22:40:03.261Z,94392.13
2018-03-14T22:42:29.884Z,94393.63
2018-03-14T22:44:56.600Z,94396.34
2018-03-14T22:47:23.202Z,94398.88
2018-03-14T22:49:49.873Z,94400.88
2018-03-14T22:52:16.559Z,94397.78
2018-03-14T22:54:43.206Z,94405.73
2018-03-14T22:57:09.879Z,94408.44
2018-03-14T22:59:36.581Z,94403.27
2018-03-14T23:02:03.252Z,94411.21
2018-03-14T23:04:29.890Z,94406.62
2018-03-14T23:06:56.547Z,94408.27
2018-03-14T23:09:23.215Z,94401.59
2018-03-14T23:11:49.844Z,94404.53
2018-03-14T23:14:16.526Z,94409.16
2018-03-14T23:16:43.124Z,94408.38
2018-03-14T23:19:09.794Z,94409.91
2018-03-14T23:21:36.438Z,94410.13
2018-03-14T23:24:03.187Z,94405.86
2018-03-14T23:26:29.809Z,94407.25
2018-03-14T23:28:56.451Z,94402.47
2018-03-14T23:31:23.083Z,94409.06
2018-03-14T23:33:49.759Z,94411.45
2018-03-14T23:36:16.433Z,94407.18
2018-03-14T23:38:43.071Z,94406.17
2018-03-14T23:41:09.746Z,94409.75
2018-03-14T23:43:36.385Z,94415.55
2018-03-14T23:46:03.055Z,94411.91
2018-03-14T23:48:29.693Z,94420.39
2018-03-14T23:50:56.402Z,94424.38
2018-03-14T23:53:23.002Z,94421.78
2018-03-14T23:55:49.678Z,94420.11
2018-03-14T23:58:16.315Z,94420.77
